Waterloo, Indiana
Current Conditions -  °F | °C
As of 7:15 PM on Sunday 25 Jan 2015 (Local Time) from KGWB Reporting Station
Light Snow Light Snow  
Wind Chill: 10°   Ceiling: 1400
Heat Index: 23°   Visibility: 2.5mi
Dew Point: 18°   Wind: 16mph
Humidity: 80%   Direction: 60°ENE
Pressure: 29.88"   Gusts: 22mph
Location:  41.43°N, 85.02°W
Report Text: KGWB 260015Z AUTO 06014G19KT 2 1/2SM -SN BKN014 BKN022 OVC046 M05/M08 A2988 RMK AO2
Loading
Personal Weather Stations






























Interactive Weather Map New forecast layout! Learn more

10-Day Weather Forecast

Advertisements
Track Severe Weather on mobile